Solana — WCY5602 — position and weather

sailwx.info

Track history (hours):
 
Tides and Currents Weather Stations Pressure Air Temp Water Temp Dewpoint Dewpoint Depression Visibility Wind Speed Wind Dir Waves Ship Positions

Solana

Owner: TAURUS MARINE, SAN FRANCISCO, CA. More information available from US FCC via Universal Licensing System and Coast Guard Vessel Documentation Center.

Last reported at 2015-Mar-06 13:33 UTC. Time now 2015-Mar-06 14:15 UTC.
Position N 47°40' W 122°15'.

Type: Towing. MMSI: 366969740.

Date/timePositionNaut miles runAvg speedWind from/ knotsBaromVisibWave heightAir tempDewpointWater temp
2015-Mar-06 13:33N 47°40' W 122°15'1 9.0
2015-Mar-06 13:26N 47°41' W 122°15'4 5.0
2015-Mar-06 12:33N 47°45' W 122°15'1 3.8
2015-Mar-06 12:16N 47°44' W 122°16'1 1.0
2015-Mar-06 11:34N 47°45' W 122°16'2 5.2
2015-Mar-06 11:16N 47°44' W 122°16'5 7.4
2015-Mar-06 10:33N 47°38' W 122°15'0 0.4
2015-Mar-06 10:31N 47°38' W 122°15'0 0.3
2015-Mar-06 09:34N 47°39' W 122°15'0 0.0
2015-Mar-06 09:25N 47°39' W 122°15'3 3.8
2015-Mar-06 08:33N 47°39' W 122°20'0 5.3
2015-Mar-06 08:31N 47°39' W 122°20'0 0.4
2015-Mar-06 07:34N 47°39' W 122°20'0 0.1
2015-Mar-06 07:31N 47°39' W 122°20'0 0.0
2015-Mar-06 07:01N 47°39' W 122°20'0 0.0
2015-Mar-06 06:33N 47°39' W 122°20'0 0.0
2015-Mar-06 05:33N 47°39' W 122°20'0 0.1
2015-Mar-06 05:31N 47°39' W 122°20'0 0.0
2015-Mar-06 04:33N 47°39' W 122°20'0 0.0
2015-Mar-06 04:25N 47°39' W 122°20'0 0.0
2015-Mar-06 03:34N 47°39' W 122°20'0 0.0
2015-Mar-06 03:25N 47°39' W 122°20'0 0.0
2015-Mar-06 02:33N 47°39' W 122°20'0 0.0
2015-Mar-06 02:30N 47°39' W 122°20'0 0.0
2015-Mar-06 01:34N 47°39' W 122°20'0 0.0
2015-Mar-06 01:30N 47°39' W 122°20'0 0.0
2015-Mar-06 00:33N 47°39' W 122°20'0 0.0
2015-Mar-06 00:29N 47°39' W 122°20'2 1.9
2015-Mar-05 23:33N 47°39' W 122°18'1 5.7
2015-Mar-05 23:24N 47°39' W 122°16'1 1.1
2015-Mar-05 22:33N 47°38' W 122°15'0 0.0
2015-Mar-05 22:28N 47°38' W 122°15'0 0.1
2015-Mar-05 21:33N 47°38' W 122°15'0 0.0
2015-Mar-05 20:33N 47°38' W 122°15'0 0.9
2015-Mar-05 20:13N 47°38' W 122°15'0 0.0
2015-Mar-05 19:33N 47°38' W 122°15'0 0.0
2015-Mar-05 19:18N 47°38' W 122°15'0 0.6
2015-Mar-05 18:33N 47°39' W 122°15'0 0.0
2015-Mar-05 18:33N 47°39' W 122°15'1 1.2
2015-Mar-05 17:32N 47°39' W 122°17'2 3.3
2015-Mar-05 16:51N 47°39' W 122°20'0 0.0
2015-Mar-05 16:33N 47°39' W 122°20'0 0.2
2015-Mar-05 16:32N 47°39' W 122°20'0 0.0
2015-Mar-05 15:34N 47°39' W 122°20'0 0.0
2015-Mar-05 15:26N 47°39' W 122°20'0 0.0
2015-Mar-05 14:34N 47°39' W 122°20'0 0.0
2015-Mar-05 14:31N 47°39' W 122°20'0 0.0
2015-Mar-05 13:33N 47°39' W 122°20'0 0.0
2015-Mar-05 13:31N 47°39' W 122°20'0 0.0
2015-Mar-05 12:34N 47°39' W 122°20'0 0.2
2015-Mar-05 12:31N 47°39' W 122°20'0 0.0
2015-Mar-05 11:33N 47°39' W 122°20'0 0.0
2015-Mar-05 11:31N 47°39' W 122°20'0 0.0
2015-Mar-05 10:34N 47°39' W 122°20'0 0.0
2015-Mar-05 10:31N 47°39' W 122°20'0 0.0
2015-Mar-05 09:34N 47°39' W 122°20'0 0.0
2015-Mar-05 09:31N 47°39' W 122°20'0 0.0
2015-Mar-05 08:34N 47°39' W 122°20'0 0.0
2015-Mar-05 08:31N 47°39' W 122°20'0 0.0
2015-Mar-05 07:33N 47°39' W 122°20'0 0.0
2015-Mar-05 07:31N 47°39' W 122°20'0 0.0
2015-Mar-05 07:11N 47°39' W 122°20'0 0.0
2015-Mar-05 06:34N 47°39' W 122°20'0 0.0
2015-Mar-05 05:33N 47°39' W 122°20'0 0.0
2015-Mar-05 05:31N 47°39' W 122°20'0 0.0
2015-Mar-05 04:34N 47°39' W 122°20'0 0.0
2015-Mar-05 04:30N 47°39' W 122°20'0 0.0
2015-Mar-05 03:34N 47°39' W 122°20'0 0.0
2015-Mar-05 03:30N 47°39' W 122°20'0 0.0
2015-Mar-05 02:33N 47°39' W 122°20'0 0.0
2015-Mar-05 02:30N 47°39' W 122°20'0 0.0
2015-Mar-05 01:33N 47°39' W 122°20'0 0.0
2015-Mar-05 01:30N 47°39' W 122°20'0 0.0
2015-Mar-05 00:34N 47°39' W 122°20'0 0.0
2015-Mar-05 00:30N 47°39' W 122°20'0 0.0
2015-Mar-04 23:34N 47°39' W 122°20'0 0.0
2015-Mar-04 23:30N 47°39' W 122°20'0 0.0
2015-Mar-04 22:33N 47°39' W 122°20'0 0.0
2015-Mar-04 22:30N 47°39' W 122°20'0 0.0
2015-Mar-04 21:34N 47°39' W 122°20'0 0.0
2015-Mar-04 21:30N 47°39' W 122°20'0 0.0
2015-Mar-04 20:33N 47°39' W 122°20'0 0.1
2015-Mar-04 20:30N 47°39' W 122°20'0 0.0
2015-Mar-04 19:34N 47°39' W 122°20'0 0.0
2015-Mar-04 19:30N 47°39' W 122°20'0 0.0
2015-Mar-04 18:33N 47°39' W 122°20'0 0.0
2015-Mar-04 18:30N 47°39' W 122°20'0 0.0
2015-Mar-04 17:33N 47°39' W 122°20'0 0.0
2015-Mar-04 17:30N 47°39' W 122°20'0 0.0
2015-Mar-04 16:34N 47°39' W 122°20'0 0.0
2015-Mar-04 16:30N 47°39' W 122°20'0 0.0
2015-Mar-04 15:34N 47°39' W 122°20'0 0.0
2015-Mar-04 15:30N 47°39' W 122°20'0 0.0
2015-Mar-04 14:33N 47°39' W 122°20'0 0.0
2015-Mar-04 14:30N 47°39' W 122°20'0 0.0
2015-Mar-04 13:34N 47°39' W 122°20'0 0.0
2015-Mar-04 13:30N 47°39' W 122°20'0 0.0
2015-Mar-04 12:33N 47°39' W 122°20'0 0.0
2015-Mar-04 12:29N 47°39' W 122°20'0 0.0
2015-Mar-04 11:34N 47°39' W 122°20'0 0.0
2015-Mar-04 11:29N 47°39' W 122°20'0 0.0
2015-Mar-04 10:34N 47°39' W 122°20'0 0.0
2015-Mar-04 10:29N 47°39' W 122°20'0 0.0
2015-Mar-04 09:34N 47°39' W 122°20'0 0.0
2015-Mar-04 09:29N 47°39' W 122°20'0 0.0
2015-Mar-04 08:34N 47°39' W 122°20'0 0.0
2015-Mar-04 08:29N 47°39' W 122°20'0 0.0
2015-Mar-04 07:34N 47°39' W 122°20'0 0.0
2015-Mar-04 07:29N 47°39' W 122°20'0 0.0
2015-Mar-04 07:09N 47°39' W 122°20'0 0.0
2015-Mar-04 06:33N 47°39' W 122°20'0 0.0
2015-Mar-04 05:33N 47°39' W 122°20'0 0.0
2015-Mar-04 05:28N 47°39' W 122°20'0 0.0
2015-Mar-04 04:33N 47°39' W 122°20'0 0.0
2015-Mar-04 04:28N 47°39' W 122°20'0 0.0
2015-Mar-04 03:34N 47°39' W 122°20'0 0.0
2015-Mar-04 03:28N 47°39' W 122°20'0 0.0
2015-Mar-04 02:34N 47°39' W 122°20'0 0.0
2015-Mar-04 02:29N 47°39' W 122°20'0 0.0
2015-Mar-04 01:33N 47°39' W 122°20'0 0.0
2015-Mar-04 01:28N 47°39' W 122°20'0 0.0
2015-Mar-04 00:34N 47°39' W 122°20'0 0.0
2015-Mar-04 00:33N 47°39' W 122°20'0 0.0
2015-Mar-03 23:34N 47°39' W 122°20'0 0.0
2015-Mar-03 23:33N 47°39' W 122°20'0 0.0
2015-Mar-03 22:34N 47°39' W 122°20'0 0.0
2015-Mar-03 22:33N 47°39' W 122°20'0 0.0
2015-Mar-03 21:33N 47°39' W 122°20'0 0.0
2015-Mar-03 21:33N 47°39' W 122°20'0 0.0
2015-Mar-03 20:33N 47°39' W 122°20'0 0.3
2015-Mar-03 20:32N 47°39' W 122°20'2 1.5
2015-Mar-03 19:25N 47°39' W 122°18'2 5.2
2015-Mar-03 19:02N 47°38' W 122°15'0 0.9
2015-Mar-03 18:29N 47°39' W 122°16'0 0.0
2015-Mar-03 18:21N 47°39' W 122°16'0 0.4
2015-Mar-03 17:33N 47°39' W 122°16'0 6.8
2015-Mar-03 17:31N 47°39' W 122°16'0 0.1
2015-Mar-03 16:33N 47°38' W 122°16'0 0.5
2015-Mar-03 15:39N 47°39' W 122°15'0 2.0
2015-Mar-03 15:33N 47°39' W 122°15'1 1.7
2015-Mar-03 15:14N 47°39' W 122°16'0 0.3
2015-Mar-03 14:33N 47°39' W 122°16'0 1.7
2015-Mar-03 14:25N 47°39' W 122°15'0 0.3
2015-Mar-03 13:33N 47°38' W 122°15'0 0.1
2015-Mar-03 13:29N 47°38' W 122°15'3 3.5
2015-Mar-03 12:33N 47°39' W 122°20'0 4.8
2015-Mar-03 12:30N 47°39' W 122°20'0 0.2
2015-Mar-03 11:22N 47°39' W 122°20'0 0.0
2015-Mar-03 11:19N 47°39' W 122°20'0 0.0
2015-Mar-03 10:33N 47°39' W 122°20'0 0.1
2015-Mar-03 10:29N 47°39' W 122°20'0 0.0
2015-Mar-03 09:33N 47°39' W 122°20'0 0.1
2015-Mar-03 09:29N 47°39' W 122°20'0 0.0
2015-Mar-03 08:33N 47°39' W 122°20'0 0.0
2015-Mar-03 08:29N 47°39' W 122°20'0 0.0
2015-Mar-03 07:33N 47°39' W 122°20'0 0.0
2015-Mar-03 07:33N 47°39' W 122°20'0 0.0
2015-Mar-03 07:08N 47°39' W 122°20'0 0.0
2015-Mar-03 06:33N 47°39' W 122°20'0 0.0
2015-Mar-03 05:33N 47°39' W 122°20'0 0.0
2015-Mar-03 05:33N 47°39' W 122°20'0 0.0
2015-Mar-03 04:33N 47°39' W 122°20'0 0.0
2015-Mar-03 04:33N 47°39' W 122°20'0 0.0
2015-Mar-03 03:33N 47°39' W 122°20'0 0.0
2015-Mar-03 03:33N 47°39' W 122°20'0 0.0
2015-Mar-03 02:33N 47°39' W 122°20'0 0.0
2015-Mar-03 02:32N 47°39' W 122°20'2 2.1
2015-Mar-03 01:33N 47°40' W 122°23'0 2.3
2015-Mar-03 01:32N 47°40' W 122°23'1 1.2
2015-Mar-03 00:33N 47°40' W 122°25'0 4.7
2015-Mar-03 00:32N 47°41' W 122°25'4 3.7
2015-Mar-02 23:33N 47°37' W 122°24'1 6.2
2015-Mar-02 23:22N 47°36' W 122°23'2 2.6
2015-Mar-02 22:33N 47°34' W 122°21'0 5.0
2015-Mar-02 22:32N 47°34' W 122°21'7 7.0
2015-Mar-02 21:33N 47°41' W 122°25'0 7.5
2015-Mar-02 21:32N 47°40' W 122°25'5 4.1
2015-Mar-02 20:23N 47°39' W 122°18'1 6.3
2015-Mar-02 20:16N 47°39' W 122°17'1 2.0
2015-Mar-02 19:33N 47°38' W 122°15'0 0.0
2015-Mar-02 19:31N 47°38' W 122°15'0 0.0
2015-Mar-02 18:33N 47°38' W 122°15'0 0.0
2015-Mar-02 18:31N 47°38' W 122°15'0 0.1
2015-Mar-02 17:33N 47°38' W 122°15'0 0.3
2015-Mar-02 16:54N 47°38' W 122°15'2 5.6
2015-Mar-02 16:31N 47°39' W 122°18'1 6.2
2015-Mar-02 16:24N 47°39' W 122°19'  
2015-Feb-27 20:33N 47°39' W 122°20'3 3.2
2015-Feb-27 19:28N 47°38' W 122°15'0 0.0
2015-Feb-27 18:08N 47°38' W 122°15'0 0.0
2015-Feb-27 17:33N 47°38' W 122°15'0 0.0
2015-Feb-27 16:33N 47°38' W 122°15'0 0.8
2015-Feb-27 15:58N 47°38' W 122°15'0 1.0
2015-Feb-27 15:32N 47°38' W 122°15'1 1.6
2015-Feb-27 15:13N 47°39' W 122°15'0 0.6
2015-Feb-27 14:32N 47°38' W 122°15'0 0.6
2015-Feb-27 14:19N 47°38' W 122°15'0 0.2
2015-Feb-27 12:52N 47°38' W 122°15'1 4.4
2015-Feb-27 12:32N 47°40' W 122°15'6 5.6
2015-Feb-27 11:33N 47°45' W 122°15'0 2.7
2015-Feb-27 11:27N 47°45' W 122°16'7 7.3
2015-Feb-27 10:32N 47°39' W 122°15'0 0.3
2015-Feb-27 09:31N 47°39' W 122°15'0 0.0
2015-Feb-27 09:12N 47°39' W 122°15'3 5.2
2015-Feb-27 08:33N 47°39' W 122°20'0 4.2
2015-Feb-27 08:27N 47°39' W 122°20'0 0.0
2015-Feb-26 21:30N 47°39' W 122°20'0 0.0
2015-Feb-26 20:33N 47°39' W 122°20'0 0.0
2015-Feb-26 19:59N 47°39' W 122°20'0 0.0
2015-Feb-25 21:27N 47°39' W 122°20'0 0.0
2015-Feb-25 21:17N 47°39' W 122°20'0 0.0
2015-Feb-25 20:33N 47°39' W 122°20'0 0.0
2015-Feb-25 20:27N 47°39' W 122°20'0 0.0
2015-Feb-25 19:33N 47°39' W 122°20'0 0.0
2015-Feb-25 19:12N 47°39' W 122°20'0 0.1
2015-Feb-25 18:32N 47°39' W 122°20'0 0.0
2015-Feb-25 18:21N 47°39' W 122°20'0 0.1
2015-Feb-25 17:31N 47°39' W 122°20'0 0.3
2015-Feb-25 17:15N 47°39' W 122°20'0 0.0
2015-Feb-25 16:33N 47°39' W 122°20'0 0.1
2015-Feb-25 16:16N 47°39' W 122°20'0 0.0
2015-Feb-25 15:33N 47°39' W 122°20'0 0.0
2015-Feb-24 23:07N 47°39' W 122°20'0 0.0
2015-Feb-24 22:29N 47°39' W 122°20'0 0.0
2015-Feb-24 22:28N 47°39' W 122°20'0 0.0
2015-Feb-24 21:32N 47°39' W 122°20'0 0.0
2015-Feb-24 21:22N 47°39' W 122°20'0 0.0
2015-Feb-24 20:33N 47°39' W 122°20'0 0.0
2015-Feb-24 20:22N 47°39' W 122°20'0 0.0
2015-Feb-24 19:33N 47°39' W 122°20'0 0.0
2015-Feb-24 19:17N 47°39' W 122°20'0 0.0
2015-Feb-24 17:20N 47°39' W 122°20'0 0.0
2015-Feb-24 16:33N 47°39' W 122°20'0 0.0
2015-Feb-24 15:18N 47°39' W 122°20'0 0.0
2015-Feb-24 14:29N 47°39' W 122°20'0 0.0
2015-Feb-24 14:25N 47°39' W 122°20'  
Track history (hours):
 
Tides and Currents Weather Stations Pressure Air Temp Water Temp Dewpoint Dewpoint Depression Visibility Wind Speed Wind Dir Waves Ship Positions

Solana

Owner: TAURUS MARINE, SAN FRANCISCO, CA. More information available from US FCC via Universal Licensing System and Coast Guard Vessel Documentation Center.

Last reported at 2015-Mar-06 13:33 UTC. Time now 2015-Mar-06 14:15 UTC.
Position N 47°40' W 122°15'.

Type: Towing. MMSI: 366969740.

Date/timePositionNaut miles runAvg speedWind from/ knotsBaromVisibWave heightAir tempDewpointWater temp
2015-Mar-06 13:33N 47°40' W 122°15'1 9.0
2015-Mar-06 13:26N 47°41' W 122°15'4 5.0
2015-Mar-06 12:33N 47°45' W 122°15'1 3.8
2015-Mar-06 12:16N 47°44' W 122°16'1 1.0
2015-Mar-06 11:34N 47°45' W 122°16'2 5.2
2015-Mar-06 11:16N 47°44' W 122°16'5 7.4
2015-Mar-06 10:33N 47°38' W 122°15'0 0.4
2015-Mar-06 10:31N 47°38' W 122°15'0 0.3
2015-Mar-06 09:34N 47°39' W 122°15'0 0.0
2015-Mar-06 09:25N 47°39' W 122°15'3 3.8
2015-Mar-06 08:33N 47°39' W 122°20'0 5.3
2015-Mar-06 08:31N 47°39' W 122°20'0 0.4
2015-Mar-06 07:34N 47°39' W 122°20'0 0.1
2015-Mar-06 07:31N 47°39' W 122°20'0 0.0
2015-Mar-06 07:01N 47°39' W 122°20'0 0.0
2015-Mar-06 06:33N 47°39' W 122°20'0 0.0
2015-Mar-06 05:33N 47°39' W 122°20'0 0.1
2015-Mar-06 05:31N 47°39' W 122°20'0 0.0
2015-Mar-06 04:33N 47°39' W 122°20'0 0.0
2015-Mar-06 04:25N 47°39' W 122°20'0 0.0
2015-Mar-06 03:34N 47°39' W 122°20'0 0.0
2015-Mar-06 03:25N 47°39' W 122°20'0 0.0
2015-Mar-06 02:33N 47°39' W 122°20'0 0.0
2015-Mar-06 02:30N 47°39' W 122°20'0 0.0
2015-Mar-06 01:34N 47°39' W 122°20'0 0.0
2015-Mar-06 01:30N 47°39' W 122°20'0 0.0
2015-Mar-06 00:33N 47°39' W 122°20'0 0.0
2015-Mar-06 00:29N 47°39' W 122°20'2 1.9
2015-Mar-05 23:33N 47°39' W 122°18'1 5.7
2015-Mar-05 23:24N 47°39' W 122°16'1 1.1
2015-Mar-05 22:33N 47°38' W 122°15'0 0.0
2015-Mar-05 22:28N 47°38' W 122°15'0 0.1
2015-Mar-05 21:33N 47°38' W 122°15'0 0.0
2015-Mar-05 20:33N 47°38' W 122°15'0 0.9
2015-Mar-05 20:13N 47°38' W 122°15'0 0.0
2015-Mar-05 19:33N 47°38' W 122°15'0 0.0
2015-Mar-05 19:18N 47°38' W 122°15'0 0.6
2015-Mar-05 18:33N 47°39' W 122°15'0 0.0
2015-Mar-05 18:33N 47°39' W 122°15'1 1.2
2015-Mar-05 17:32N 47°39' W 122°17'2 3.3
2015-Mar-05 16:51N 47°39' W 122°20'0 0.0
2015-Mar-05 16:33N 47°39' W 122°20'0 0.2
2015-Mar-05 16:32N 47°39' W 122°20'0 0.0
2015-Mar-05 15:34N 47°39' W 122°20'0 0.0
2015-Mar-05 15:26N 47°39' W 122°20'0 0.0
2015-Mar-05 14:34N 47°39' W 122°20'0 0.0
2015-Mar-05 14:31N 47°39' W 122°20'0 0.0
2015-Mar-05 13:33N 47°39' W 122°20'0 0.0
2015-Mar-05 13:31N 47°39' W 122°20'0 0.0
2015-Mar-05 12:34N 47°39' W 122°20'0 0.2
2015-Mar-05 12:31N 47°39' W 122°20'0 0.0
2015-Mar-05 11:33N 47°39' W 122°20'0 0.0
2015-Mar-05 11:31N 47°39' W 122°20'0 0.0
2015-Mar-05 10:34N 47°39' W 122°20'0 0.0
2015-Mar-05 10:31N 47°39' W 122°20'0 0.0
2015-Mar-05 09:34N 47°39' W 122°20'0 0.0
2015-Mar-05 09:31N 47°39' W 122°20'0 0.0
2015-Mar-05 08:34N 47°39' W 122°20'0 0.0
2015-Mar-05 08:31N 47°39' W 122°20'0 0.0
2015-Mar-05 07:33N 47°39' W 122°20'0 0.0
2015-Mar-05 07:31N 47°39' W 122°20'0 0.0
2015-Mar-05 07:11N 47°39' W 122°20'0 0.0
2015-Mar-05 06:34N 47°39' W 122°20'0 0.0
2015-Mar-05 05:33N 47°39' W 122°20'0 0.0
2015-Mar-05 05:31N 47°39' W 122°20'0 0.0
2015-Mar-05 04:34N 47°39' W 122°20'0 0.0
2015-Mar-05 04:30N 47°39' W 122°20'0 0.0
2015-Mar-05 03:34N 47°39' W 122°20'0 0.0
2015-Mar-05 03:30N 47°39' W 122°20'0 0.0
2015-Mar-05 02:33N 47°39' W 122°20'0 0.0
2015-Mar-05 02:30N 47°39' W 122°20'0 0.0
2015-Mar-05 01:33N 47°39' W 122°20'0 0.0
2015-Mar-05 01:30N 47°39' W 122°20'0 0.0
2015-Mar-05 00:34N 47°39' W 122°20'0 0.0
2015-Mar-05 00:30N 47°39' W 122°20'0 0.0
2015-Mar-04 23:34N 47°39' W 122°20'0 0.0
2015-Mar-04 23:30N 47°39' W 122°20'0 0.0
2015-Mar-04 22:33N 47°39' W 122°20'0 0.0
2015-Mar-04 22:30N 47°39' W 122°20'0 0.0
2015-Mar-04 21:34N 47°39' W 122°20'0 0.0
2015-Mar-04 21:30N 47°39' W 122°20'0 0.0
2015-Mar-04 20:33N 47°39' W 122°20'0 0.1
2015-Mar-04 20:30N 47°39' W 122°20'0 0.0
2015-Mar-04 19:34N 47°39' W 122°20'0 0.0
2015-Mar-04 19:30N 47°39' W 122°20'0 0.0
2015-Mar-04 18:33N 47°39' W 122°20'0 0.0
2015-Mar-04 18:30N 47°39' W 122°20'0 0.0
2015-Mar-04 17:33N 47°39' W 122°20'0 0.0
2015-Mar-04 17:30N 47°39' W 122°20'0 0.0
2015-Mar-04 16:34N 47°39' W 122°20'0 0.0
2015-Mar-04 16:30N 47°39' W 122°20'0 0.0
2015-Mar-04 15:34N 47°39' W 122°20'0 0.0
2015-Mar-04 15:30N 47°39' W 122°20'0 0.0
2015-Mar-04 14:33N 47°39' W 122°20'0 0.0
2015-Mar-04 14:30N 47°39' W 122°20'0 0.0
2015-Mar-04 13:34N 47°39' W 122°20'0 0.0
2015-Mar-04 13:30N 47°39' W 122°20'0 0.0
2015-Mar-04 12:33N 47°39' W 122°20'0 0.0
2015-Mar-04 12:29N 47°39' W 122°20'0 0.0
2015-Mar-04 11:34N 47°39' W 122°20'0 0.0
2015-Mar-04 11:29N 47°39' W 122°20'0 0.0
2015-Mar-04 10:34N 47°39' W 122°20'0 0.0
2015-Mar-04 10:29N 47°39' W 122°20'0 0.0
2015-Mar-04 09:34N 47°39' W 122°20'0 0.0
2015-Mar-04 09:29N 47°39' W 122°20'0 0.0
2015-Mar-04 08:34N 47°39' W 122°20'0 0.0
2015-Mar-04 08:29N 47°39' W 122°20'0 0.0
2015-Mar-04 07:34N 47°39' W 122°20'0 0.0
2015-Mar-04 07:29N 47°39' W 122°20'0 0.0
2015-Mar-04 07:09N 47°39' W 122°20'0 0.0
2015-Mar-04 06:33N 47°39' W 122°20'0 0.0
2015-Mar-04 05:33N 47°39' W 122°20'0 0.0
2015-Mar-04 05:28N 47°39' W 122°20'0 0.0
2015-Mar-04 04:33N 47°39' W 122°20'0 0.0
2015-Mar-04 04:28N 47°39' W 122°20'0 0.0
2015-Mar-04 03:34N 47°39' W 122°20'0 0.0
2015-Mar-04 03:28N 47°39' W 122°20'0 0.0
2015-Mar-04 02:34N 47°39' W 122°20'0 0.0
2015-Mar-04 02:29N 47°39' W 122°20'0 0.0
2015-Mar-04 01:33N 47°39' W 122°20'0 0.0
2015-Mar-04 01:28N 47°39' W 122°20'0 0.0
2015-Mar-04 00:34N 47°39' W 122°20'0 0.0
2015-Mar-04 00:33N 47°39' W 122°20'0 0.0
2015-Mar-03 23:34N 47°39' W 122°20'0 0.0
2015-Mar-03 23:33N 47°39' W 122°20'0 0.0
2015-Mar-03 22:34N 47°39' W 122°20'0 0.0
2015-Mar-03 22:33N 47°39' W 122°20'0 0.0
2015-Mar-03 21:33N 47°39' W 122°20'0 0.0
2015-Mar-03 21:33N 47°39' W 122°20'0 0.0
2015-Mar-03 20:33N 47°39' W 122°20'0 0.3
2015-Mar-03 20:32N 47°39' W 122°20'2 1.5
2015-Mar-03 19:25N 47°39' W 122°18'2 5.2
2015-Mar-03 19:02N 47°38' W 122°15'0 0.9
2015-Mar-03 18:29N 47°39' W 122°16'0 0.0
2015-Mar-03 18:21N 47°39' W 122°16'0 0.4
2015-Mar-03 17:33N 47°39' W 122°16'0 6.8
2015-Mar-03 17:31N 47°39' W 122°16'0 0.1
2015-Mar-03 16:33N 47°38' W 122°16'0 0.5
2015-Mar-03 15:39N 47°39' W 122°15'0 2.0
2015-Mar-03 15:33N 47°39' W 122°15'1 1.7
2015-Mar-03 15:14N 47°39' W 122°16'0 0.3
2015-Mar-03 14:33N 47°39' W 122°16'0 1.7
2015-Mar-03 14:25N 47°39' W 122°15'0 0.3
2015-Mar-03 13:33N 47°38' W 122°15'0 0.1
2015-Mar-03 13:29N 47°38' W 122°15'3 3.5
2015-Mar-03 12:33N 47°39' W 122°20'0 4.8
2015-Mar-03 12:30N 47°39' W 122°20'0 0.2
2015-Mar-03 11:22N 47°39' W 122°20'0 0.0
2015-Mar-03 11:19N 47°39' W 122°20'0 0.0
2015-Mar-03 10:33N 47°39' W 122°20'0 0.1
2015-Mar-03 10:29N 47°39' W 122°20'0 0.0
2015-Mar-03 09:33N 47°39' W 122°20'0 0.1
2015-Mar-03 09:29N 47°39' W 122°20'0 0.0
2015-Mar-03 08:33N 47°39' W 122°20'0 0.0
2015-Mar-03 08:29N 47°39' W 122°20'0 0.0
2015-Mar-03 07:33N 47°39' W 122°20'0 0.0
2015-Mar-03 07:33N 47°39' W 122°20'0 0.0
2015-Mar-03 07:08N 47°39' W 122°20'0 0.0
2015-Mar-03 06:33N 47°39' W 122°20'0 0.0
2015-Mar-03 05:33N 47°39' W 122°20'0 0.0
2015-Mar-03 05:33N 47°39' W 122°20'0 0.0
2015-Mar-03 04:33N 47°39' W 122°20'0 0.0
2015-Mar-03 04:33N 47°39' W 122°20'0 0.0
2015-Mar-03 03:33N 47°39' W 122°20'0 0.0
2015-Mar-03 03:33N 47°39' W 122°20'0 0.0
2015-Mar-03 02:33N 47°39' W 122°20'0 0.0
2015-Mar-03 02:32N 47°39' W 122°20'2 2.1
2015-Mar-03 01:33N 47°40' W 122°23'0 2.3
2015-Mar-03 01:32N 47°40' W 122°23'1 1.2
2015-Mar-03 00:33N 47°40' W 122°25'0 4.7
2015-Mar-03 00:32N 47°41' W 122°25'4 3.7
2015-Mar-02 23:33N 47°37' W 122°24'1 6.2
2015-Mar-02 23:22N 47°36' W 122°23'2 2.6
2015-Mar-02 22:33N 47°34' W 122°21'0 5.0
2015-Mar-02 22:32N 47°34' W 122°21'7 7.0
2015-Mar-02 21:33N 47°41' W 122°25'0 7.5
2015-Mar-02 21:32N 47°40' W 122°25'5 4.1
2015-Mar-02 20:23N 47°39' W 122°18'1 6.3
2015-Mar-02 20:16N 47°39' W 122°17'1 2.0
2015-Mar-02 19:33N 47°38' W 122°15'0 0.0
2015-Mar-02 19:31N 47°38' W 122°15'0 0.0
2015-Mar-02 18:33N 47°38' W 122°15'0 0.0
2015-Mar-02 18:31N 47°38' W 122°15'0 0.1
2015-Mar-02 17:33N 47°38' W 122°15'0 0.3
2015-Mar-02 16:54N 47°38' W 122°15'2 5.6
2015-Mar-02 16:31N 47°39' W 122°18'1 6.2
2015-Mar-02 16:24N 47°39' W 122°19'  
2015-Feb-27 20:33N 47°39' W 122°20'3 3.2
2015-Feb-27 19:28N 47°38' W 122°15'0 0.0
2015-Feb-27 18:08N 47°38' W 122°15'0 0.0
2015-Feb-27 17:33N 47°38' W 122°15'0 0.0
2015-Feb-27 16:33N 47°38' W 122°15'0 0.8
2015-Feb-27 15:58N 47°38' W 122°15'0 1.0
2015-Feb-27 15:32N 47°38' W 122°15'1 1.6
2015-Feb-27 15:13N 47°39' W 122°15'0 0.6
2015-Feb-27 14:32N 47°38' W 122°15'0 0.6
2015-Feb-27 14:19N 47°38' W 122°15'0 0.2
2015-Feb-27 12:52N 47°38' W 122°15'1 4.4
2015-Feb-27 12:32N 47°40' W 122°15'6 5.6
2015-Feb-27 11:33N 47°45' W 122°15'0 2.7
2015-Feb-27 11:27N 47°45' W 122°16'7 7.3
2015-Feb-27 10:32N 47°39' W 122°15'0 0.3
2015-Feb-27 09:31N 47°39' W 122°15'0 0.0
2015-Feb-27 09:12N 47°39' W 122°15'3 5.2
2015-Feb-27 08:33N 47°39' W 122°20'0 4.2
2015-Feb-27 08:27N 47°39' W 122°20'0 0.0
2015-Feb-26 21:30N 47°39' W 122°20'0 0.0
2015-Feb-26 20:33N 47°39' W 122°20'0 0.0
2015-Feb-26 19:59N 47°39' W 122°20'0 0.0
2015-Feb-25 21:27N 47°39' W 122°20'0 0.0
2015-Feb-25 21:17N 47°39' W 122°20'0 0.0
2015-Feb-25 20:33N 47°39' W 122°20'0 0.0
2015-Feb-25 20:27N 47°39' W 122°20'0 0.0
2015-Feb-25 19:33N 47°39' W 122°20'0 0.0
2015-Feb-25 19:12N 47°39' W 122°20'0 0.1
2015-Feb-25 18:32N 47°39' W 122°20'0 0.0
2015-Feb-25 18:21N 47°39' W 122°20'0 0.1
2015-Feb-25 17:31N 47°39' W 122°20'0 0.3
2015-Feb-25 17:15N 47°39' W 122°20'0 0.0
2015-Feb-25 16:33N 47°39' W 122°20'0 0.1
2015-Feb-25 16:16N 47°39' W 122°20'0 0.0
2015-Feb-25 15:33N 47°39' W 122°20'0 0.0
2015-Feb-24 23:07N 47°39' W 122°20'0 0.0
2015-Feb-24 22:29N 47°39' W 122°20'0 0.0
2015-Feb-24 22:28N 47°39' W 122°20'0 0.0
2015-Feb-24 21:32N 47°39' W 122°20'0 0.0
2015-Feb-24 21:22N 47°39' W 122°20'0 0.0
2015-Feb-24 20:33N 47°39' W 122°20'0 0.0
2015-Feb-24 20:22N 47°39' W 122°20'0 0.0
2015-Feb-24 19:33N 47°39' W 122°20'0 0.0
2015-Feb-24 19:17N 47°39' W 122°20'0 0.0
2015-Feb-24 17:20N 47°39' W 122°20'0 0.0
2015-Feb-24 16:33N 47°39' W 122°20'0 0.0
2015-Feb-24 15:18N 47°39' W 122°20'0 0.0
2015-Feb-24 14:29N 47°39' W 122°20'0 0.0
2015-Feb-24 14:25N 47°39' W 122°20'  

Dump ship's entire track history